sensor_id;sensor_type;location;lat;lon;timestamp;P1;durP1;ratioP1;P2;durP2;ratioP2
41404;SDS011;27146;51.788;8.824;2022-07-17T00:01:27;2.78;;;0.90;;
41404;SDS011;27146;51.788;8.824;2022-07-17T00:03:53;6.38;;;1.60;;
41404;SDS011;27146;51.788;8.824;2022-07-17T00:06:18;6.20;;;1.52;;
41404;SDS011;27146;51.788;8.824;2022-07-17T00:08:44;11.45;;;1.30;;
41404;SDS011;27146;51.788;8.824;2022-07-17T00:11:09;4.40;;;1.40;;
41404;SDS011;27146;51.788;8.824;2022-07-17T00:13:35;5.50;;;1.40;;
41404;SDS011;27146;51.788;8.824;2022-07-17T00:16:00;4.43;;;1.35;;
41404;SDS011;27146;51.788;8.824;2022-07-17T00:18:26;4.57;;;1.10;;
41404;SDS011;27146;51.788;8.824;2022-07-17T00:20:52;7.95;;;1.20;;
41404;SDS011;27146;51.788;8.824;2022-07-17T00:23:17;7.30;;;1.80;;
41404;SDS011;27146;51.788;8.824;2022-07-17T00:25:43;4.40;;;1.67;;
41404;SDS011;27146;51.788;8.824;2022-07-17T00:28:09;7.70;;;1.48;;
41404;SDS011;27146;51.788;8.824;2022-07-17T00:30:35;6.22;;;1.30;;
41404;SDS011;27146;51.788;8.824;2022-07-17T00:33:00;5.85;;;1.55;;
41404;SDS011;27146;51.788;8.824;2022-07-17T00:35:26;8.30;;;1.38;;
41404;SDS011;27146;51.788;8.824;2022-07-17T00:37:51;6.82;;;1.40;;
41404;SDS011;27146;51.788;8.824;2022-07-17T00:40:18;5.38;;;1.42;;
41404;SDS011;27146;51.788;8.824;2022-07-17T00:42:46;8.75;;;1.40;;
41404;SDS011;27146;51.788;8.824;2022-07-17T00:45:12;6.50;;;1.38;;
41404;SDS011;27146;51.788;8.824;2022-07-17T00:47:57;7.25;;;1.17;;
41404;SDS011;27146;51.788;8.824;2022-07-17T00:50:29;5.90;;;1.38;;
41404;SDS011;27146;51.788;8.824;2022-07-17T00:52:56;6.75;;;1.35;;
41404;SDS011;27146;51.788;8.824;2022-07-17T00:55:22;9.95;;;1.45;;
41404;SDS011;27146;51.788;8.824;2022-07-17T00:57:48;8.10;;;1.83;;
41404;SDS011;27146;51.788;8.824;2022-07-17T01:00:15;9.32;;;1.73;;
41404;SDS011;27146;51.788;8.824;2022-07-17T01:02:44;5.78;;;1.50;;
41404;SDS011;27146;51.788;8.824;2022-07-17T01:05:11;7.63;;;1.30;;
41404;SDS011;27146;51.788;8.824;2022-07-17T01:07:37;6.40;;;1.10;;
41404;SDS011;27146;51.788;8.824;2022-07-17T01:10:02;7.60;;;1.25;;
41404;SDS011;27146;51.788;8.824;2022-07-17T01:12:28;6.93;;;1.30;;
41404;SDS011;27146;51.788;8.824;2022-07-17T01:14:55;7.55;;;2.05;;
41404;SDS011;27146;51.788;8.824;2022-07-17T01:17:21;4.22;;;1.50;;
41404;SDS011;27146;51.788;8.824;2022-07-17T01:19:47;6.40;;;1.30;;
41404;SDS011;27146;51.788;8.824;2022-07-17T01:22:13;5.85;;;1.30;;
41404;SDS011;27146;51.788;8.824;2022-07-17T01:24:39;5.97;;;1.58;;
41404;SDS011;27146;51.788;8.824;2022-07-17T01:27:05;10.52;;;1.52;;
41404;SDS011;27146;51.788;8.824;2022-07-17T01:29:31;6.47;;;1.73;;
41404;SDS011;27146;51.788;8.824;2022-07-17T01:31:56;6.38;;;1.63;;
41404;SDS011;27146;51.788;8.824;2022-07-17T01:34:22;8.48;;;1.77;;
41404;SDS011;27146;51.788;8.824;2022-07-17T01:36:48;4.75;;;1.85;;
41404;SDS011;27146;51.788;8.824;2022-07-17T01:39:13;7.57;;;1.60;;
41404;SDS011;27146;51.788;8.824;2022-07-17T01:41:39;10.50;;;2.25;;
41404;SDS011;27146;51.788;8.824;2022-07-17T01:44:05;9.52;;;1.60;;
41404;SDS011;27146;51.788;8.824;2022-07-17T01:46:32;5.00;;;1.70;;
41404;SDS011;27146;51.788;8.824;2022-07-17T01:48:58;5.50;;;1.27;;
41404;SDS011;27146;51.788;8.824;2022-07-17T01:51:25;7.32;;;1.30;;
41404;SDS011;27146;51.788;8.824;2022-07-17T01:53:51;9.10;;;2.00;;
41404;SDS011;27146;51.788;8.824;2022-07-17T01:56:17;7.38;;;1.67;;
41404;SDS011;27146;51.788;8.824;2022-07-17T01:58:42;5.43;;;1.92;;
41404;SDS011;27146;51.788;8.824;2022-07-17T02:01:08;8.15;;;1.85;;
41404;SDS011;27146;51.788;8.824;2022-07-17T02:03:33;9.85;;;2.13;;
41404;SDS011;27146;51.788;8.824;2022-07-17T02:05:59;6.32;;;1.70;;
41404;SDS011;27146;51.788;8.824;2022-07-17T02:08:24;3.17;;;1.30;;
41404;SDS011;27146;51.788;8.824;2022-07-17T02:10:50;8.27;;;1.60;;
41404;SDS011;27146;51.788;8.824;2022-07-17T02:13:15;6.60;;;1.23;;
41404;SDS011;27146;51.788;8.824;2022-07-17T02:15:41;12.02;;;1.70;;
41404;SDS011;27146;51.788;8.824;2022-07-17T02:18:06;10.18;;;2.55;;
41404;SDS011;27146;51.788;8.824;2022-07-17T02:20:32;5.55;;;1.40;;
41404;SDS011;27146;51.788;8.824;2022-07-17T02:22:57;8.38;;;1.83;;
41404;SDS011;27146;51.788;8.824;2022-07-17T02:25:23;7.00;;;1.38;;
41404;SDS011;27146;51.788;8.824;2022-07-17T02:27:48;6.75;;;1.90;;
41404;SDS011;27146;51.788;8.824;2022-07-17T02:30:15;11.10;;;2.42;;
41404;SDS011;27146;51.788;8.824;2022-07-17T02:32:42;7.07;;;1.42;;
41404;SDS011;27146;51.788;8.824;2022-07-17T02:35:08;4.88;;;1.58;;
41404;SDS011;27146;51.788;8.824;2022-07-17T02:37:35;16.05;;;2.78;;
41404;SDS011;27146;51.788;8.824;2022-07-17T02:40:01;8.13;;;1.80;;
41404;SDS011;27146;51.788;8.824;2022-07-17T02:42:28;12.70;;;2.95;;
41404;SDS011;27146;51.788;8.824;2022-07-17T02:44:54;7.40;;;2.10;;
41404;SDS011;27146;51.788;8.824;2022-07-17T02:47:31;8.95;;;2.53;;
41404;SDS011;27146;51.788;8.824;2022-07-17T02:49:58;7.45;;;1.50;;
41404;SDS011;27146;51.788;8.824;2022-07-17T02:52:26;11.93;;;2.10;;
41404;SDS011;27146;51.788;8.824;2022-07-17T02:54:52;9.13;;;2.40;;
41404;SDS011;27146;51.788;8.824;2022-07-17T02:57:17;6.97;;;1.77;;
41404;SDS011;27146;51.788;8.824;2022-07-17T02:59:43;6.20;;;2.67;;
41404;SDS011;27146;51.788;8.824;2022-07-17T03:02:09;10.20;;;1.90;;
41404;SDS011;27146;51.788;8.824;2022-07-17T03:04:34;5.55;;;1.70;;
41404;SDS011;27146;51.788;8.824;2022-07-17T03:07:00;8.10;;;2.45;;
41404;SDS011;27146;51.788;8.824;2022-07-17T03:09:25;6.28;;;1.70;;
41404;SDS011;27146;51.788;8.824;2022-07-17T03:11:51;5.05;;;1.80;;
41404;SDS011;27146;51.788;8.824;2022-07-17T03:14:17;5.03;;;2.03;;
41404;SDS011;27146;51.788;8.824;2022-07-17T03:16:43;9.45;;;1.73;;
41404;SDS011;27146;51.788;8.824;2022-07-17T03:19:08;6.68;;;1.50;;
41404;SDS011;27146;51.788;8.824;2022-07-17T03:21:34;5.18;;;1.85;;
41404;SDS011;27146;51.788;8.824;2022-07-17T03:23:59;10.20;;;2.08;;
41404;SDS011;27146;51.788;8.824;2022-07-17T03:26:25;5.70;;;2.03;;
41404;SDS011;27146;51.788;8.824;2022-07-17T03:28:50;6.35;;;1.60;;
41404;SDS011;27146;51.788;8.824;2022-07-17T03:31:16;5.85;;;1.83;;
41404;SDS011;27146;51.788;8.824;2022-07-17T03:33:41;7.97;;;1.90;;
41404;SDS011;27146;51.788;8.824;2022-07-17T03:36:07;6.32;;;2.00;;
41404;SDS011;27146;51.788;8.824;2022-07-17T03:38:33;7.68;;;2.08;;
41404;SDS011;27146;51.788;8.824;2022-07-17T03:40:58;6.60;;;2.00;;
41404;SDS011;27146;51.788;8.824;2022-07-17T03:43:24;9.13;;;2.45;;
41404;SDS011;27146;51.788;8.824;2022-07-17T03:45:50;5.30;;;2.00;;
41404;SDS011;27146;51.788;8.824;2022-07-17T03:48:15;6.65;;;2.33;;
41404;SDS011;27146;51.788;8.824;2022-07-17T03:50:41;8.52;;;2.70;;
41404;SDS011;27146;51.788;8.824;2022-07-17T03:53:07;8.00;;;1.83;;
41404;SDS011;27146;51.788;8.824;2022-07-17T03:55:32;9.95;;;2.13;;
41404;SDS011;27146;51.788;8.824;2022-07-17T03:57:58;11.70;;;2.40;;
41404;SDS011;27146;51.788;8.824;2022-07-17T04:00:23;5.40;;;1.83;;
41404;SDS011;27146;51.788;8.824;2022-07-17T04:02:49;6.90;;;1.75;;
41404;SDS011;27146;51.788;8.824;2022-07-17T04:05:14;8.52;;;2.35;;
41404;SDS011;27146;51.788;8.824;2022-07-17T04:07:40;4.32;;;2.00;;
41404;SDS011;27146;51.788;8.824;2022-07-17T04:10:07;5.95;;;2.20;;
41404;SDS011;27146;51.788;8.824;2022-07-17T04:12:35;7.25;;;2.30;;
41404;SDS011;27146;51.788;8.824;2022-07-17T04:15:01;16.38;;;2.30;;
41404;SDS011;27146;51.788;8.824;2022-07-17T04:17:27;10.20;;;2.58;;
41404;SDS011;27146;51.788;8.824;2022-07-17T04:19:52;8.10;;;2.22;;
41404;SDS011;27146;51.788;8.824;2022-07-17T04:22:18;5.30;;;1.92;;
41404;SDS011;27146;51.788;8.824;2022-07-17T04:24:44;10.25;;;2.83;;
41404;SDS011;27146;51.788;8.824;2022-07-17T04:27:10;8.98;;;2.40;;
41404;SDS011;27146;51.788;8.824;2022-07-17T04:29:36;9.73;;;3.03;;
41404;SDS011;27146;51.788;8.824;2022-07-17T04:32:02;9.85;;;2.60;;
41404;SDS011;27146;51.788;8.824;2022-07-17T04:34:28;14.27;;;2.72;;
41404;SDS011;27146;51.788;8.824;2022-07-17T04:36:54;8.75;;;3.47;;
41404;SDS011;27146;51.788;8.824;2022-07-17T04:39:20;6.50;;;2.38;;
41404;SDS011;27146;51.788;8.824;2022-07-17T04:41:45;8.52;;;3.13;;
41404;SDS011;27146;51.788;8.824;2022-07-17T04:44:11;7.78;;;2.65;;
41404;SDS011;27146;51.788;8.824;2022-07-17T04:46:36;8.95;;;2.38;;
41404;SDS011;27146;51.788;8.824;2022-07-17T04:49:02;9.40;;;3.25;;
41404;SDS011;27146;51.788;8.824;2022-07-17T04:51:27;9.05;;;3.00;;
41404;SDS011;27146;51.788;8.824;2022-07-17T04:53:53;14.70;;;4.10;;
41404;SDS011;27146;51.788;8.824;2022-07-17T04:56:18;9.05;;;2.78;;
41404;SDS011;27146;51.788;8.824;2022-07-17T04:58:44;8.88;;;2.63;;
41404;SDS011;27146;51.788;8.824;2022-07-17T05:01:09;9.35;;;3.00;;
41404;SDS011;27146;51.788;8.824;2022-07-17T05:03:35;6.70;;;2.38;;
41404;SDS011;27146;51.788;8.824;2022-07-17T05:06:02;6.97;;;2.00;;
41404;SDS011;27146;51.788;8.824;2022-07-17T05:08:28;11.02;;;2.25;;
41404;SDS011;27146;51.788;8.824;2022-07-17T05:10:54;9.85;;;2.75;;
41404;SDS011;27146;51.788;8.824;2022-07-17T05:13:19;8.38;;;2.45;;
41404;SDS011;27146;51.788;8.824;2022-07-17T05:15:45;7.30;;;2.20;;
41404;SDS011;27146;51.788;8.824;2022-07-17T05:18:10;7.07;;;2.47;;
41404;SDS011;27146;51.788;8.824;2022-07-17T05:20:36;7.28;;;2.38;;
41404;SDS011;27146;51.788;8.824;2022-07-17T05:23:04;7.35;;;1.63;;
41404;SDS011;27146;51.788;8.824;2022-07-17T05:25:29;6.80;;;2.08;;
41404;SDS011;27146;51.788;8.824;2022-07-17T05:27:55;6.72;;;2.30;;
41404;SDS011;27146;51.788;8.824;2022-07-17T05:30:20;7.43;;;2.08;;
41404;SDS011;27146;51.788;8.824;2022-07-17T05:32:46;6.15;;;1.80;;
41404;SDS011;27146;51.788;8.824;2022-07-17T05:35:11;7.63;;;2.00;;
41404;SDS011;27146;51.788;8.824;2022-07-17T05:37:37;6.18;;;1.63;;
41404;SDS011;27146;51.788;8.824;2022-07-17T05:40:03;4.13;;;1.85;;
41404;SDS011;27146;51.788;8.824;2022-07-17T05:42:29;4.65;;;1.63;;
41404;SDS011;27146;51.788;8.824;2022-07-17T05:44:54;7.13;;;2.00;;
41404;SDS011;27146;51.788;8.824;2022-07-17T05:47:20;8.98;;;1.58;;
41404;SDS011;27146;51.788;8.824;2022-07-17T05:49:45;5.00;;;1.25;;
41404;SDS011;27146;51.788;8.824;2022-07-17T05:52:11;8.63;;;2.05;;
41404;SDS011;27146;51.788;8.824;2022-07-17T05:54:36;5.65;;;1.02;;
41404;SDS011;27146;51.788;8.824;2022-07-17T05:57:02;7.00;;;1.38;;
41404;SDS011;27146;51.788;8.824;2022-07-17T05:59:28;7.95;;;2.22;;
41404;SDS011;27146;51.788;8.824;2022-07-17T06:01:54;8.55;;;1.60;;
41404;SDS011;27146;51.788;8.824;2022-07-17T06:04:19;8.65;;;1.67;;
41404;SDS011;27146;51.788;8.824;2022-07-17T06:06:45;10.90;;;2.08;;
41404;SDS011;27146;51.788;8.824;2022-07-17T06:09:10;7.22;;;1.45;;
41404;SDS011;27146;51.788;8.824;2022-07-17T06:11:36;10.38;;;2.00;;
41404;SDS011;27146;51.788;8.824;2022-07-17T06:14:01;6.47;;;1.98;;
41404;SDS011;27146;51.788;8.824;2022-07-17T06:16:27;9.70;;;2.10;;
41404;SDS011;27146;51.788;8.824;2022-07-17T06:18:53;5.53;;;1.42;;
41404;SDS011;27146;51.788;8.824;2022-07-17T06:21:18;9.55;;;1.63;;
41404;SDS011;27146;51.788;8.824;2022-07-17T06:23:43;5.70;;;1.10;;
41404;SDS011;27146;51.788;8.824;2022-07-17T06:26:09;8.65;;;2.28;;
41404;SDS011;27146;51.788;8.824;2022-07-17T06:28:35;10.02;;;1.23;;
41404;SDS011;27146;51.788;8.824;2022-07-17T06:31:00;9.48;;;1.60;;
41404;SDS011;27146;51.788;8.824;2022-07-17T06:33:26;10.77;;;1.60;;
41404;SDS011;27146;51.788;8.824;2022-07-17T06:35:51;8.95;;;1.45;;
41404;SDS011;27146;51.788;8.824;2022-07-17T06:38:17;12.32;;;1.67;;
41404;SDS011;27146;51.788;8.824;2022-07-17T06:40:42;5.50;;;1.38;;
41404;SDS011;27146;51.788;8.824;2022-07-17T06:43:08;6.88;;;1.60;;
41404;SDS011;27146;51.788;8.824;2022-07-17T06:45:34;7.47;;;1.25;;
41404;SDS011;27146;51.788;8.824;2022-07-17T06:48:00;10.30;;;1.52;;
41404;SDS011;27146;51.788;8.824;2022-07-17T06:50:26;5.60;;;1.20;;
41404;SDS011;27146;51.788;8.824;2022-07-17T06:52:52;7.13;;;1.90;;
41404;SDS011;27146;51.788;8.824;2022-07-17T06:55:17;6.13;;;1.08;;
41404;SDS011;27146;51.788;8.824;2022-07-17T06:57:43;9.15;;;1.65;;
41404;SDS011;27146;51.788;8.824;2022-07-17T07:00:08;11.07;;;2.10;;
41404;SDS011;27146;51.788;8.824;2022-07-17T07:02:35;8.63;;;1.85;;
41404;SDS011;27146;51.788;8.824;2022-07-17T07:05:02;9.07;;;1.10;;
41404;SDS011;27146;51.788;8.824;2022-07-17T07:07:27;6.97;;;1.17;;
41404;SDS011;27146;51.788;8.824;2022-07-17T07:09:53;4.93;;;1.08;;
41404;SDS011;27146;51.788;8.824;2022-07-17T07:12:18;10.20;;;1.60;;
41404;SDS011;27146;51.788;8.824;2022-07-17T07:14:44;7.45;;;1.30;;
41404;SDS011;27146;51.788;8.824;2022-07-17T07:17:09;9.45;;;1.40;;
41404;SDS011;27146;51.788;8.824;2022-07-17T07:19:35;6.03;;;1.27;;
41404;SDS011;27146;51.788;8.824;2022-07-17T07:22:00;8.38;;;1.27;;
41404;SDS011;27146;51.788;8.824;2022-07-17T07:24:26;6.05;;;1.00;;
41404;SDS011;27146;51.788;8.824;2022-07-17T07:26:51;7.70;;;1.13;;
41404;SDS011;27146;51.788;8.824;2022-07-17T07:29:17;5.38;;;1.20;;
41404;SDS011;27146;51.788;8.824;2022-07-17T07:31:42;7.18;;;1.42;;
41404;SDS011;27146;51.788;8.824;2022-07-17T07:34:08;6.25;;;1.17;;
41404;SDS011;27146;51.788;8.824;2022-07-17T07:36:34;6.28;;;1.20;;
41404;SDS011;27146;51.788;8.824;2022-07-17T07:38:59;8.52;;;1.40;;
41404;SDS011;27146;51.788;8.824;2022-07-17T07:41:25;5.22;;;1.23;;
41404;SDS011;27146;51.788;8.824;2022-07-17T07:43:50;3.17;;;0.90;;
41404;SDS011;27146;51.788;8.824;2022-07-17T07:46:16;6.20;;;0.98;;
41404;SDS011;27146;51.788;8.824;2022-07-17T07:48:41;6.70;;;1.10;;
41404;SDS011;27146;51.788;8.824;2022-07-17T07:51:07;9.93;;;1.38;;
41404;SDS011;27146;51.788;8.824;2022-07-17T07:53:32;6.57;;;1.25;;
41404;SDS011;27146;51.788;8.824;2022-07-17T07:55:58;6.18;;;1.20;;
41404;SDS011;27146;51.788;8.824;2022-07-17T07:58:23;11.98;;;1.30;;
41404;SDS011;27146;51.788;8.824;2022-07-17T08:00:49;5.20;;;1.15;;
41404;SDS011;27146;51.788;8.824;2022-07-17T08:03:15;7.30;;;1.38;;
41404;SDS011;27146;51.788;8.824;2022-07-17T08:05:40;3.78;;;1.23;;
41404;SDS011;27146;51.788;8.824;2022-07-17T08:08:06;8.02;;;1.65;;
41404;SDS011;27146;51.788;8.824;2022-07-17T08:10:32;7.32;;;1.33;;
41404;SDS011;27146;51.788;8.824;2022-07-17T08:12:57;6.72;;;1.13;;
41404;SDS011;27146;51.788;8.824;2022-07-17T08:15:23;4.95;;;1.63;;
41404;SDS011;27146;51.788;8.824;2022-07-17T08:17:49;6.32;;;1.10;;
41404;SDS011;27146;51.788;8.824;2022-07-17T08:20:18;3.90;;;0.90;;
41404;SDS011;27146;51.788;8.824;2022-07-17T08:22:45;11.32;;;1.83;;
41404;SDS011;27146;51.788;8.824;2022-07-17T08:25:11;9.65;;;1.48;;
41404;SDS011;27146;51.788;8.824;2022-07-17T08:27:37;4.20;;;0.93;;
41404;SDS011;27146;51.788;8.824;2022-07-17T08:30:04;5.55;;;0.90;;
41404;SDS011;27146;51.788;8.824;2022-07-17T08:32:32;6.78;;;1.25;;
41404;SDS011;27146;51.788;8.824;2022-07-17T08:34:58;5.97;;;1.30;;
41404;SDS011;27146;51.788;8.824;2022-07-17T08:37:23;4.28;;;1.13;;
41404;SDS011;27146;51.788;8.824;2022-07-17T08:39:49;8.32;;;1.67;;
41404;SDS011;27146;51.788;8.824;2022-07-17T08:42:15;7.90;;;1.35;;
41404;SDS011;27146;51.788;8.824;2022-07-17T08:44:44;4.60;;;0.70;;
41404;SDS011;27146;51.788;8.824;2022-07-17T08:47:11;9.80;;;1.42;;
41404;SDS011;27146;51.788;8.824;2022-07-17T08:49:38;9.82;;;1.75;;
41404;SDS011;27146;51.788;8.824;2022-07-17T08:52:09;9.43;;;1.15;;
41404;SDS011;27146;51.788;8.824;2022-07-17T08:54:35;7.57;;;1.42;;
41404;SDS011;27146;51.788;8.824;2022-07-17T08:57:01;7.53;;;1.30;;
41404;SDS011;27146;51.788;8.824;2022-07-17T08:59:28;4.65;;;0.95;;
41404;SDS011;27146;51.788;8.824;2022-07-17T09:01:54;4.18;;;0.82;;
41404;SDS011;27146;51.788;8.824;2022-07-17T09:04:19;5.30;;;1.00;;
41404;SDS011;27146;51.788;8.824;2022-07-17T09:06:45;8.40;;;1.33;;
41404;SDS011;27146;51.788;8.824;2022-07-17T09:09:11;6.95;;;1.30;;
41404;SDS011;27146;51.788;8.824;2022-07-17T09:11:45;4.78;;;1.00;;
41404;SDS011;27146;51.788;8.824;2022-07-17T09:14:11;8.00;;;1.25;;
41404;SDS011;27146;51.788;8.824;2022-07-17T09:16:47;6.78;;;1.10;;
41404;SDS011;27146;51.788;8.824;2022-07-17T09:19:30;5.65;;;1.10;;
41404;SDS011;27146;51.788;8.824;2022-07-17T09:22:20;8.82;;;1.05;;
41404;SDS011;27146;51.788;8.824;2022-07-17T09:24:48;7.30;;;1.23;;
41404;SDS011;27146;51.788;8.824;2022-07-17T09:29:58;4.72;;;1.00;;
41404;SDS011;27146;51.788;8.824;2022-07-17T09:35:00;5.97;;;1.10;;
41404;SDS011;27146;51.788;8.824;2022-07-17T09:37:27;3.72;;;0.70;;
41404;SDS011;27146;51.788;8.824;2022-07-17T09:39:54;14.35;;;1.50;;
41404;SDS011;27146;51.788;8.824;2022-07-17T09:42:30;6.75;;;1.65;;
41404;SDS011;27146;51.788;8.824;2022-07-17T09:45:05;4.30;;;0.98;;
41404;SDS011;27146;51.788;8.824;2022-07-17T09:47:33;6.53;;;1.13;;
41404;SDS011;27146;51.788;8.824;2022-07-17T09:50:00;7.85;;;1.25;;
41404;SDS011;27146;51.788;8.824;2022-07-17T09:52:29;6.40;;;1.00;;
41404;SDS011;27146;51.788;8.824;2022-07-17T09:54:57;7.22;;;1.52;;
41404;SDS011;27146;51.788;8.824;2022-07-17T09:57:24;9.95;;;1.58;;
41404;SDS011;27146;51.788;8.824;2022-07-17T09:59:53;7.60;;;1.30;;
41404;SDS011;27146;51.788;8.824;2022-07-17T10:02:20;5.22;;;0.95;;
41404;SDS011;27146;51.788;8.824;2022-07-17T10:04:46;5.97;;;0.93;;
41404;SDS011;27146;51.788;8.824;2022-07-17T10:07:12;5.55;;;0.98;;
41404;SDS011;27146;51.788;8.824;2022-07-17T10:09:38;4.93;;;1.25;;
41404;SDS011;27146;51.788;8.824;2022-07-17T10:12:05;5.90;;;1.13;;
41404;SDS011;27146;51.788;8.824;2022-07-17T10:14:31;4.38;;;0.90;;
41404;SDS011;27146;51.788;8.824;2022-07-17T10:17:05;5.75;;;1.08;;
41404;SDS011;27146;51.788;8.824;2022-07-17T10:19:43;8.95;;;1.00;;
41404;SDS011;27146;51.788;8.824;2022-07-17T10:22:16;4.97;;;0.90;;
41404;SDS011;27146;51.788;8.824;2022-07-17T10:25:03;5.85;;;0.80;;
41404;SDS011;27146;51.788;8.824;2022-07-17T10:27:29;5.93;;;1.20;;
41404;SDS011;27146;51.788;8.824;2022-07-17T10:30:06;4.75;;;1.23;;
41404;SDS011;27146;51.788;8.824;2022-07-17T10:32:34;3.53;;;0.80;;
41404;SDS011;27146;51.788;8.824;2022-07-17T10:35:04;3.88;;;0.93;;
41404;SDS011;27146;51.788;8.824;2022-07-17T10:47:53;3.83;;;1.42;;
41404;SDS011;27146;51.788;8.824;2022-07-17T10:50:26;7.10;;;1.17;;
41404;SDS011;27146;51.788;8.824;2022-07-17T10:53:29;7.90;;;1.20;;
41404;SDS011;27146;51.788;8.824;2022-07-17T10:55:53;5.25;;;1.02;;
41404;SDS011;27146;51.788;8.824;2022-07-17T10:58:21;6.65;;;1.80;;
41404;SDS011;27146;51.788;8.824;2022-07-17T11:01:04;6.90;;;0.70;;
41404;SDS011;27146;51.788;8.824;2022-07-17T11:03:50;5.25;;;1.25;;
41404;SDS011;27146;51.788;8.824;2022-07-17T11:06:19;5.72;;;1.00;;
41404;SDS011;27146;51.788;8.824;2022-07-17T11:08:49;3.38;;;0.68;;
41404;SDS011;27146;51.788;8.824;2022-07-17T11:11:16;3.47;;;0.80;;
41404;SDS011;27146;51.788;8.824;2022-07-17T11:13:43;4.25;;;1.27;;
41404;SDS011;27146;51.788;8.824;2022-07-17T11:16:09;6.43;;;1.25;;
41404;SDS011;27146;51.788;8.824;2022-07-17T11:18:35;4.85;;;0.80;;
41404;SDS011;27146;51.788;8.824;2022-07-17T11:21:02;3.20;;;0.80;;
41404;SDS011;27146;51.788;8.824;2022-07-17T11:23:29;4.70;;;1.17;;
41404;SDS011;27146;51.788;8.824;2022-07-17T11:25:57;4.43;;;0.88;;
41404;SDS011;27146;51.788;8.824;2022-07-17T11:28:32;5.18;;;1.05;;
41404;SDS011;27146;51.788;8.824;2022-07-17T11:31:04;6.50;;;1.10;;
41404;SDS011;27146;51.788;8.824;2022-07-17T11:33:45;4.57;;;1.00;;
41404;SDS011;27146;51.788;8.824;2022-07-17T11:38:49;3.17;;;0.98;;
41404;SDS011;27146;51.788;8.824;2022-07-17T11:41:16;4.80;;;0.98;;
41404;SDS011;27146;51.788;8.824;2022-07-17T11:43:45;6.30;;;1.15;;
41404;SDS011;27146;51.788;8.824;2022-07-17T11:46:12;4.90;;;0.90;;
41404;SDS011;27146;51.788;8.824;2022-07-17T11:48:40;2.25;;;0.80;;
41404;SDS011;27146;51.788;8.824;2022-07-17T11:51:09;5.10;;;0.98;;
41404;SDS011;27146;51.788;8.824;2022-07-17T11:53:36;4.32;;;1.00;;
41404;SDS011;27146;51.788;8.824;2022-07-17T11:56:03;6.78;;;1.05;;
41404;SDS011;27146;51.788;8.824;2022-07-17T11:58:45;5.95;;;1.00;;
41404;SDS011;27146;51.788;8.824;2022-07-17T12:01:12;3.28;;;1.00;;
41404;SDS011;27146;51.788;8.824;2022-07-17T12:03:39;5.47;;;1.20;;
41404;SDS011;27146;51.788;8.824;2022-07-17T12:06:04;6.07;;;0.95;;
41404;SDS011;27146;51.788;8.824;2022-07-17T12:08:30;6.20;;;0.90;;
41404;SDS011;27146;51.788;8.824;2022-07-17T12:11:00;7.65;;;1.20;;
41404;SDS011;27146;51.788;8.824;2022-07-17T12:13:40;9.05;;;1.48;;
41404;SDS011;27146;51.788;8.824;2022-07-17T12:21:31;5.95;;;1.17;;
41404;SDS011;27146;51.788;8.824;2022-07-17T12:24:02;12.43;;;1.42;;
41404;SDS011;27146;51.788;8.824;2022-07-17T12:26:30;8.70;;;1.40;;
41404;SDS011;27146;51.788;8.824;2022-07-17T12:28:56;7.43;;;1.35;;
41404;SDS011;27146;51.788;8.824;2022-07-17T12:31:22;4.53;;;1.10;;
41404;SDS011;27146;51.788;8.824;2022-07-17T12:33:49;5.55;;;1.02;;
41404;SDS011;27146;51.788;8.824;2022-07-17T12:36:17;6.43;;;1.30;;
41404;SDS011;27146;51.788;8.824;2022-07-17T12:38:42;6.38;;;1.33;;
41404;SDS011;27146;51.788;8.824;2022-07-17T12:41:08;4.93;;;1.05;;
41404;SDS011;27146;51.788;8.824;2022-07-17T12:43:34;4.40;;;0.90;;
41404;SDS011;27146;51.788;8.824;2022-07-17T12:46:00;5.80;;;1.08;;
41404;SDS011;27146;51.788;8.824;2022-07-17T12:48:25;3.92;;;1.05;;
41404;SDS011;27146;51.788;8.824;2022-07-17T12:50:51;7.20;;;1.58;;
41404;SDS011;27146;51.788;8.824;2022-07-17T12:53:16;6.28;;;1.10;;
41404;SDS011;27146;51.788;8.824;2022-07-17T12:55:42;5.40;;;1.13;;
41404;SDS011;27146;51.788;8.824;2022-07-17T12:58:07;3.38;;;1.10;;
41404;SDS011;27146;51.788;8.824;2022-07-17T13:00:34;5.38;;;1.27;;
41404;SDS011;27146;51.788;8.824;2022-07-17T13:03:01;4.70;;;1.23;;
41404;SDS011;27146;51.788;8.824;2022-07-17T13:05:27;5.82;;;1.05;;
41404;SDS011;27146;51.788;8.824;2022-07-17T13:07:53;7.60;;;0.93;;
41404;SDS011;27146;51.788;8.824;2022-07-17T13:10:19;5.53;;;1.15;;
41404;SDS011;27146;51.788;8.824;2022-07-17T13:12:44;5.60;;;1.00;;
41404;SDS011;27146;51.788;8.824;2022-07-17T13:15:10;6.18;;;1.27;;
41404;SDS011;27146;51.788;8.824;2022-07-17T13:17:35;3.92;;;0.85;;
41404;SDS011;27146;51.788;8.824;2022-07-17T13:20:02;7.40;;;1.00;;
41404;SDS011;27146;51.788;8.824;2022-07-17T13:22:29;3.50;;;1.02;;
41404;SDS011;27146;51.788;8.824;2022-07-17T13:24:55;5.03;;;1.20;;
41404;SDS011;27146;51.788;8.824;2022-07-17T13:27:20;3.33;;;0.90;;
41404;SDS011;27146;51.788;8.824;2022-07-17T13:29:45;5.40;;;1.20;;
41404;SDS011;27146;51.788;8.824;2022-07-17T13:32:11;3.05;;;0.80;;
41404;SDS011;27146;51.788;8.824;2022-07-17T13:34:37;3.13;;;0.90;;
41404;SDS011;27146;51.788;8.824;2022-07-17T13:37:02;6.10;;;0.95;;
41404;SDS011;27146;51.788;8.824;2022-07-17T13:39:28;7.53;;;1.45;;
41404;SDS011;27146;51.788;8.824;2022-07-17T13:41:53;6.75;;;1.58;;
41404;SDS011;27146;51.788;8.824;2022-07-17T13:44:19;7.95;;;1.00;;
41404;SDS011;27146;51.788;8.824;2022-07-17T13:46:44;7.13;;;0.90;;
41404;SDS011;27146;51.788;8.824;2022-07-17T13:49:10;4.05;;;1.20;;
41404;SDS011;27146;51.788;8.824;2022-07-17T13:51:35;4.35;;;0.98;;
41404;SDS011;27146;51.788;8.824;2022-07-17T13:54:01;4.50;;;0.98;;
41404;SDS011;27146;51.788;8.824;2022-07-17T13:56:27;4.43;;;0.82;;
41404;SDS011;27146;51.788;8.824;2022-07-17T13:58:53;6.82;;;1.20;;
41404;SDS011;27146;51.788;8.824;2022-07-17T14:01:18;4.85;;;1.00;;
41404;SDS011;27146;51.788;8.824;2022-07-17T14:03:44;3.90;;;0.90;;
41404;SDS011;27146;51.788;8.824;2022-07-17T14:06:09;7.15;;;0.82;;
41404;SDS011;27146;51.788;8.824;2022-07-17T14:08:35;3.42;;;0.90;;
41404;SDS011;27146;51.788;8.824;2022-07-17T14:11:01;3.00;;;0.85;;
41404;SDS011;27146;51.788;8.824;2022-07-17T14:13:27;2.45;;;0.70;;
41404;SDS011;27146;51.788;8.824;2022-07-17T14:15:53;3.72;;;1.05;;
41404;SDS011;27146;51.788;8.824;2022-07-17T14:18:19;5.85;;;1.23;;
41404;SDS011;27146;51.788;8.824;2022-07-17T14:20:44;5.97;;;0.93;;
41404;SDS011;27146;51.788;8.824;2022-07-17T14:23:10;3.45;;;1.00;;
41404;SDS011;27146;51.788;8.824;2022-07-17T14:25:36;5.03;;;1.10;;
41404;SDS011;27146;51.788;8.824;2022-07-17T14:28:02;5.60;;;1.10;;
41404;SDS011;27146;51.788;8.824;2022-07-17T14:30:28;4.22;;;0.80;;
41404;SDS011;27146;51.788;8.824;2022-07-17T14:32:53;5.50;;;1.40;;
41404;SDS011;27146;51.788;8.824;2022-07-17T14:35:19;6.40;;;1.10;;
41404;SDS011;27146;51.788;8.824;2022-07-17T14:37:45;6.25;;;1.08;;
41404;SDS011;27146;51.788;8.824;2022-07-17T14:40:11;4.85;;;0.98;;
41404;SDS011;27146;51.788;8.824;2022-07-17T14:42:37;6.07;;;0.85;;
41404;SDS011;27146;51.788;8.824;2022-07-17T14:45:03;5.70;;;0.90;;
41404;SDS011;27146;51.788;8.824;2022-07-17T14:47:29;5.07;;;1.27;;
41404;SDS011;27146;51.788;8.824;2022-07-17T14:49:54;4.18;;;1.10;;
41404;SDS011;27146;51.788;8.824;2022-07-17T14:52:20;5.97;;;1.20;;
41404;SDS011;27146;51.788;8.824;2022-07-17T14:54:46;4.68;;;0.73;;
41404;SDS011;27146;51.788;8.824;2022-07-17T14:57:11;4.05;;;0.88;;
41404;SDS011;27146;51.788;8.824;2022-07-17T14:59:37;9.38;;;1.02;;
41404;SDS011;27146;51.788;8.824;2022-07-17T15:02:02;6.20;;;1.20;;
41404;SDS011;27146;51.788;8.824;2022-07-17T15:04:28;5.82;;;1.20;;
41404;SDS011;27146;51.788;8.824;2022-07-17T15:06:53;7.65;;;1.10;;